sensor_id;sensor_type;location;lat;lon;timestamp;temperature;humidity
67752;DHT22;54551;51.068;5.826;2022-12-18T00:01:04;-5.40;99.90
67752;DHT22;54551;51.068;5.826;2022-12-18T00:03:34;-5.40;99.90
67752;DHT22;54551;51.068;5.826;2022-12-18T00:06:00;-5.40;99.90
67752;DHT22;54551;51.068;5.826;2022-12-18T00:08:26;-5.40;99.90
67752;DHT22;54551;51.068;5.826;2022-12-18T00:10:52;-5.40;99.90
67752;DHT22;54551;51.068;5.826;2022-12-18T00:13:18;-5.40;99.90
67752;DHT22;54551;51.068;5.826;2022-12-18T00:15:43;-5.40;99.90
67752;DHT22;54551;51.068;5.826;2022-12-18T00:18:09;-5.50;99.90
67752;DHT22;54551;51.068;5.826;2022-12-18T00:20:39;-5.50;99.90
67752;DHT22;54551;51.068;5.826;2022-12-18T00:23:06;-5.50;99.90
67752;DHT22;54551;51.068;5.826;2022-12-18T00:25:35;-5.50;99.90
67752;DHT22;54551;51.068;5.826;2022-12-18T00:28:04;-5.50;99.90
67752;DHT22;54551;51.068;5.826;2022-12-18T00:30:30;-5.60;99.90
67752;DHT22;54551;51.068;5.826;2022-12-18T00:32:57;-5.60;99.90
67752;DHT22;54551;51.068;5.826;2022-12-18T00:35:25;-5.60;99.90
67752;DHT22;54551;51.068;5.826;2022-12-18T00:37:51;-5.60;99.90
67752;DHT22;54551;51.068;5.826;2022-12-18T00:40:17;-5.60;99.90
67752;DHT22;54551;51.068;5.826;2022-12-18T00:42:43;-5.70;99.90
67752;DHT22;54551;51.068;5.826;2022-12-18T00:45:23;-5.70;99.90
67752;DHT22;54551;51.068;5.826;2022-12-18T00:47:48;-5.70;99.90
67752;DHT22;54551;51.068;5.826;2022-12-18T00:50:15;-5.70;99.90
67752;DHT22;54551;51.068;5.826;2022-12-18T00:52:41;-5.80;99.90
67752;DHT22;54551;51.068;5.826;2022-12-18T00:55:07;-5.80;99.90
67752;DHT22;54551;51.068;5.826;2022-12-18T00:57:33;-6.10;99.90
67752;DHT22;54551;51.068;5.826;2022-12-18T00:59:59;-6.10;99.90
67752;DHT22;54551;51.068;5.826;2022-12-18T01:02:25;-6.00;99.90
67752;DHT22;54551;51.068;5.826;2022-12-18T01:04:55;-5.90;99.90
67752;DHT22;54551;51.068;5.826;2022-12-18T01:07:21;-5.90;99.90
67752;DHT22;54551;51.068;5.826;2022-12-18T01:09:47;-5.80;99.90
67752;DHT22;54551;51.068;5.826;2022-12-18T01:12:13;-5.80;99.90
67752;DHT22;54551;51.068;5.826;2022-12-18T01:14:39;-5.80;99.90
67752;DHT22;54551;51.068;5.826;2022-12-18T01:17:05;-5.90;99.90
67752;DHT22;54551;51.068;5.826;2022-12-18T01:19:33;-5.90;99.90
67752;DHT22;54551;51.068;5.826;2022-12-18T01:21:59;-5.90;99.90
67752;DHT22;54551;51.068;5.826;2022-12-18T01:24:25;-5.90;99.90
67752;DHT22;54551;51.068;5.826;2022-12-18T01:26:51;-5.90;99.90
67752;DHT22;54551;51.068;5.826;2022-12-18T01:29:17;-5.80;99.90
67752;DHT22;54551;51.068;5.826;2022-12-18T01:31:43;-5.80;99.90
67752;DHT22;54551;51.068;5.826;2022-12-18T01:34:09;-5.80;99.90
67752;DHT22;54551;51.068;5.826;2022-12-18T01:36:37;-5.80;99.90
67752;DHT22;54551;51.068;5.826;2022-12-18T01:39:12;-5.80;99.90
67752;DHT22;54551;51.068;5.826;2022-12-18T01:41:41;-5.70;99.90
67752;DHT22;54551;51.068;5.826;2022-12-18T01:55:23;-5.80;99.90
67752;DHT22;54551;51.068;5.826;2022-12-18T01:57:54;-5.80;99.90
67752;DHT22;54551;51.068;5.826;2022-12-18T02:00:22;-5.80;99.90
67752;DHT22;54551;51.068;5.826;2022-12-18T02:02:51;-5.80;99.90
67752;DHT22;54551;51.068;5.826;2022-12-18T02:08:24;-5.80;99.90
67752;DHT22;54551;51.068;5.826;2022-12-18T02:17:07;-5.90;99.90
67752;DHT22;54551;51.068;5.826;2022-12-18T02:25:26;-6.00;99.90
67752;DHT22;54551;51.068;5.826;2022-12-18T02:27:59;-6.00;99.90
67752;DHT22;54551;51.068;5.826;2022-12-18T02:30:27;-6.00;99.90
67752;DHT22;54551;51.068;5.826;2022-12-18T02:32:56;-6.00;99.90
67752;DHT22;54551;51.068;5.826;2022-12-18T02:35:25;-6.10;99.90
67752;DHT22;54551;51.068;5.826;2022-12-18T02:37:55;-6.10;99.90
67752;DHT22;54551;51.068;5.826;2022-12-18T02:40:24;-6.10;99.90
67752;DHT22;54551;51.068;5.826;2022-12-18T02:42:51;-6.10;99.90
67752;DHT22;54551;51.068;5.826;2022-12-18T02:45:19;-6.00;99.90
67752;DHT22;54551;51.068;5.826;2022-12-18T02:47:48;-6.00;99.90
67752;DHT22;54551;51.068;5.826;2022-12-18T02:53:27;-6.20;99.90
67752;DHT22;54551;51.068;5.826;2022-12-18T02:56:16;-6.20;99.90
67752;DHT22;54551;51.068;5.826;2022-12-18T03:01:54;-6.20;99.90
67752;DHT22;54551;51.068;5.826;2022-12-18T03:04:38;-6.20;99.90
67752;DHT22;54551;51.068;5.826;2022-12-18T03:07:10;-6.10;99.90
67752;DHT22;54551;51.068;5.826;2022-12-18T03:09:41;-6.10;99.90
67752;DHT22;54551;51.068;5.826;2022-12-18T03:12:21;-6.10;99.90
67752;DHT22;54551;51.068;5.826;2022-12-18T03:14:57;-6.10;99.90
67752;DHT22;54551;51.068;5.826;2022-12-18T03:17:28;-6.10;99.90
67752;DHT22;54551;51.068;5.826;2022-12-18T03:19:57;-6.00;99.90
67752;DHT22;54551;51.068;5.826;2022-12-18T03:22:27;-6.10;99.90
67752;DHT22;54551;51.068;5.826;2022-12-18T03:24:55;-6.10;99.90
67752;DHT22;54551;51.068;5.826;2022-12-18T03:27:22;-6.10;99.90
67752;DHT22;54551;51.068;5.826;2022-12-18T03:30:15;-6.10;99.90
67752;DHT22;54551;51.068;5.826;2022-12-18T03:32:50;-6.00;99.90
67752;DHT22;54551;51.068;5.826;2022-12-18T03:35:31;-6.00;99.90
67752;DHT22;54551;51.068;5.826;2022-12-18T03:37:59;-6.00;99.90
67752;DHT22;54551;51.068;5.826;2022-12-18T03:40:51;-6.20;99.90
67752;DHT22;54551;51.068;5.826;2022-12-18T03:48:55;-6.10;99.90
67752;DHT22;54551;51.068;5.826;2022-12-18T03:54:02;-6.10;99.90
67752;DHT22;54551;51.068;5.826;2022-12-18T03:56:40;-6.10;99.90
67752;DHT22;54551;51.068;5.826;2022-12-18T03:59:10;-6.10;99.90
67752;DHT22;54551;51.068;5.826;2022-12-18T04:01:42;-6.10;99.90
67752;DHT22;54551;51.068;5.826;2022-12-18T04:04:13;-6.10;99.90
67752;DHT22;54551;51.068;5.826;2022-12-18T04:06:41;-6.10;99.90
67752;DHT22;54551;51.068;5.826;2022-12-18T04:09:09;-6.10;99.90
67752;DHT22;54551;51.068;5.826;2022-12-18T04:11:40;-6.10;99.90
67752;DHT22;54551;51.068;5.826;2022-12-18T04:14:07;-6.10;99.90
67752;DHT22;54551;51.068;5.826;2022-12-18T04:16:33;-6.00;99.90
67752;DHT22;54551;51.068;5.826;2022-12-18T04:19:02;-6.10;99.90
67752;DHT22;54551;51.068;5.826;2022-12-18T04:21:32;-6.00;99.90
67752;DHT22;54551;51.068;5.826;2022-12-18T04:23:59;-6.20;99.90
67752;DHT22;54551;51.068;5.826;2022-12-18T04:26:27;-6.40;99.90
67752;DHT22;54551;51.068;5.826;2022-12-18T04:29:05;-6.40;99.90
67752;DHT22;54551;51.068;5.826;2022-12-18T04:31:31;-6.50;99.90
67752;DHT22;54551;51.068;5.826;2022-12-18T04:34:00;-6.40;99.90
67752;DHT22;54551;51.068;5.826;2022-12-18T04:36:27;-6.40;99.90
67752;DHT22;54551;51.068;5.826;2022-12-18T04:38:54;-6.40;99.90
67752;DHT22;54551;51.068;5.826;2022-12-18T04:41:20;-6.30;99.90
67752;DHT22;54551;51.068;5.826;2022-12-18T04:43:47;-6.20;99.90
67752;DHT22;54551;51.068;5.826;2022-12-18T04:46:13;-6.10;99.90
67752;DHT22;54551;51.068;5.826;2022-12-18T04:48:40;-6.00;99.90
67752;DHT22;54551;51.068;5.826;2022-12-18T04:51:06;-6.00;99.90
67752;DHT22;54551;51.068;5.826;2022-12-18T04:53:32;-6.00;99.90
67752;DHT22;54551;51.068;5.826;2022-12-18T04:56:08;-6.00;99.90
67752;DHT22;54551;51.068;5.826;2022-12-18T04:58:35;-6.00;99.90
67752;DHT22;54551;51.068;5.826;2022-12-18T05:01:01;-6.00;99.90
67752;DHT22;54551;51.068;5.826;2022-12-18T05:03:29;-6.00;99.90
67752;DHT22;54551;51.068;5.826;2022-12-18T05:05:55;-6.00;99.90
67752;DHT22;54551;51.068;5.826;2022-12-18T05:08:21;-6.00;99.90
67752;DHT22;54551;51.068;5.826;2022-12-18T05:10:46;-6.00;99.90
67752;DHT22;54551;51.068;5.826;2022-12-18T05:13:12;-6.00;99.90
67752;DHT22;54551;51.068;5.826;2022-12-18T05:15:38;-5.90;99.90
67752;DHT22;54551;51.068;5.826;2022-12-18T05:18:04;-6.00;99.90
67752;DHT22;54551;51.068;5.826;2022-12-18T05:20:31;-6.00;99.90
67752;DHT22;54551;51.068;5.826;2022-12-18T05:22:57;-6.20;99.90
67752;DHT22;54551;51.068;5.826;2022-12-18T05:25:24;-6.30;99.90
67752;DHT22;54551;51.068;5.826;2022-12-18T05:27:50;-6.40;99.90
67752;DHT22;54551;51.068;5.826;2022-12-18T05:30:16;-6.40;99.90
67752;DHT22;54551;51.068;5.826;2022-12-18T05:32:42;-6.30;99.90
67752;DHT22;54551;51.068;5.826;2022-12-18T05:35:09;-6.20;99.90
67752;DHT22;54551;51.068;5.826;2022-12-18T05:37:36;-6.10;99.90
67752;DHT22;54551;51.068;5.826;2022-12-18T05:40:03;-6.00;99.90
67752;DHT22;54551;51.068;5.826;2022-12-18T05:42:30;-6.00;99.90
67752;DHT22;54551;51.068;5.826;2022-12-18T05:44:56;-6.00;99.90
67752;DHT22;54551;51.068;5.826;2022-12-18T05:47:22;-5.90;99.90
67752;DHT22;54551;51.068;5.826;2022-12-18T05:49:48;-5.90;99.90
67752;DHT22;54551;51.068;5.826;2022-12-18T05:52:13;-6.10;99.90
67752;DHT22;54551;51.068;5.826;2022-12-18T05:54:39;-6.20;99.90
67752;DHT22;54551;51.068;5.826;2022-12-18T05:57:05;-6.20;99.90
67752;DHT22;54551;51.068;5.826;2022-12-18T05:59:31;-6.10;99.90
67752;DHT22;54551;51.068;5.826;2022-12-18T06:01:57;-6.20;99.90
67752;DHT22;54551;51.068;5.826;2022-12-18T06:04:23;-6.20;99.90
67752;DHT22;54551;51.068;5.826;2022-12-18T06:06:49;-6.10;99.90
67752;DHT22;54551;51.068;5.826;2022-12-18T06:09:14;-6.20;99.90
67752;DHT22;54551;51.068;5.826;2022-12-18T06:11:43;-6.30;99.90
67752;DHT22;54551;51.068;5.826;2022-12-18T06:14:09;-6.10;99.90
67752;DHT22;54551;51.068;5.826;2022-12-18T06:16:35;-6.00;99.90
67752;DHT22;54551;51.068;5.826;2022-12-18T06:19:03;-6.00;99.90
67752;DHT22;54551;51.068;5.826;2022-12-18T06:21:30;-6.00;99.90
67752;DHT22;54551;51.068;5.826;2022-12-18T06:23:56;-5.90;99.90
67752;DHT22;54551;51.068;5.826;2022-12-18T06:26:22;-6.00;99.90
67752;DHT22;54551;51.068;5.826;2022-12-18T06:28:49;-6.10;99.90
67752;DHT22;54551;51.068;5.826;2022-12-18T06:31:15;-6.00;99.90
67752;DHT22;54551;51.068;5.826;2022-12-18T06:33:41;-6.00;99.90
67752;DHT22;54551;51.068;5.826;2022-12-18T06:36:09;-6.00;99.90
67752;DHT22;54551;51.068;5.826;2022-12-18T06:38:37;-6.00;99.90
67752;DHT22;54551;51.068;5.826;2022-12-18T06:41:11;-5.90;99.90
67752;DHT22;54551;51.068;5.826;2022-12-18T06:43:37;-6.00;99.90
67752;DHT22;54551;51.068;5.826;2022-12-18T06:46:04;-5.90;99.90
67752;DHT22;54551;51.068;5.826;2022-12-18T06:48:30;-6.00;99.90
67752;DHT22;54551;51.068;5.826;2022-12-18T06:50:56;-6.00;99.90
67752;DHT22;54551;51.068;5.826;2022-12-18T06:53:22;-6.00;99.90
67752;DHT22;54551;51.068;5.826;2022-12-18T06:55:48;-5.90;99.90
67752;DHT22;54551;51.068;5.826;2022-12-18T06:58:14;-5.90;99.90
67752;DHT22;54551;51.068;5.826;2022-12-18T07:00:40;-5.90;99.90
67752;DHT22;54551;51.068;5.826;2022-12-18T07:03:06;-5.90;99.90
67752;DHT22;54551;51.068;5.826;2022-12-18T07:05:32;-5.90;99.90
67752;DHT22;54551;51.068;5.826;2022-12-18T07:07:58;-6.00;99.90
67752;DHT22;54551;51.068;5.826;2022-12-18T07:10:27;-6.00;99.90
67752;DHT22;54551;51.068;5.826;2022-12-18T07:12:53;-5.90;99.90
67752;DHT22;54551;51.068;5.826;2022-12-18T07:15:20;-5.90;99.90
67752;DHT22;54551;51.068;5.826;2022-12-18T07:17:46;-5.90;99.90
67752;DHT22;54551;51.068;5.826;2022-12-18T07:20:11;-5.90;99.90
67752;DHT22;54551;51.068;5.826;2022-12-18T07:22:37;-5.90;99.90
67752;DHT22;54551;51.068;5.826;2022-12-18T07:25:06;-5.90;99.90
67752;DHT22;54551;51.068;5.826;2022-12-18T07:27:32;-5.90;99.90
67752;DHT22;54551;51.068;5.826;2022-12-18T07:29:58;-6.00;99.90
67752;DHT22;54551;51.068;5.826;2022-12-18T07:32:24;-6.00;99.90
67752;DHT22;54551;51.068;5.826;2022-12-18T07:34:50;-5.90;99.90
67752;DHT22;54551;51.068;5.826;2022-12-18T07:37:15;-6.00;99.90
67752;DHT22;54551;51.068;5.826;2022-12-18T07:39:43;-6.00;99.90
67752;DHT22;54551;51.068;5.826;2022-12-18T07:42:13;-5.90;99.90
67752;DHT22;54551;51.068;5.826;2022-12-18T07:44:57;-5.90;99.90
67752;DHT22;54551;51.068;5.826;2022-12-18T07:47:24;-5.80;99.90
67752;DHT22;54551;51.068;5.826;2022-12-18T07:49:50;-5.70;99.90
67752;DHT22;54551;51.068;5.826;2022-12-18T07:52:16;-5.60;99.90
67752;DHT22;54551;51.068;5.826;2022-12-18T07:54:41;-5.60;99.90
67752;DHT22;54551;51.068;5.826;2022-12-18T07:57:08;-5.40;99.90
67752;DHT22;54551;51.068;5.826;2022-12-18T07:59:34;-5.30;99.90
67752;DHT22;54551;51.068;5.826;2022-12-18T08:02:00;-5.30;99.90
67752;DHT22;54551;51.068;5.826;2022-12-18T08:04:26;-5.20;99.90
67752;DHT22;54551;51.068;5.826;2022-12-18T08:06:52;-5.10;99.90
67752;DHT22;54551;51.068;5.826;2022-12-18T08:09:18;-5.00;99.90
67752;DHT22;54551;51.068;5.826;2022-12-18T08:11:44;-4.90;99.90
67752;DHT22;54551;51.068;5.826;2022-12-18T08:14:10;-4.80;99.90
67752;DHT22;54551;51.068;5.826;2022-12-18T08:16:36;-4.80;99.90
67752;DHT22;54551;51.068;5.826;2022-12-18T08:19:02;-4.70;99.90
67752;DHT22;54551;51.068;5.826;2022-12-18T08:21:30;-4.60;99.90
67752;DHT22;54551;51.068;5.826;2022-12-18T08:24:00;-4.60;99.90
67752;DHT22;54551;51.068;5.826;2022-12-18T08:26:30;-4.50;99.90
67752;DHT22;54551;51.068;5.826;2022-12-18T08:28:57;-4.50;99.90
67752;DHT22;54551;51.068;5.826;2022-12-18T08:31:25;-4.50;99.90
67752;DHT22;54551;51.068;5.826;2022-12-18T08:33:54;-4.20;99.90
67752;DHT22;54551;51.068;5.826;2022-12-18T08:36:20;-3.90;99.90
67752;DHT22;54551;51.068;5.826;2022-12-18T08:38:47;-3.50;99.90
67752;DHT22;54551;51.068;5.826;2022-12-18T08:41:21;-3.20;99.90
67752;DHT22;54551;51.068;5.826;2022-12-18T08:43:47;-2.80;99.90
67752;DHT22;54551;51.068;5.826;2022-12-18T08:46:39;-2.40;99.90
67752;DHT22;54551;51.068;5.826;2022-12-18T08:49:06;-2.00;99.90
67752;DHT22;54551;51.068;5.826;2022-12-18T08:51:32;-1.90;99.90
67752;DHT22;54551;51.068;5.826;2022-12-18T08:53:58;-2.10;99.90
67752;DHT22;54551;51.068;5.826;2022-12-18T08:56:24;-1.90;99.90
67752;DHT22;54551;51.068;5.826;2022-12-18T08:58:54;-1.90;99.90
67752;DHT22;54551;51.068;5.826;2022-12-18T09:01:20;-2.00;99.90
67752;DHT22;54551;51.068;5.826;2022-12-18T09:03:46;-1.80;99.90
67752;DHT22;54551;51.068;5.826;2022-12-18T09:06:17;-1.60;99.90
67752;DHT22;54551;51.068;5.826;2022-12-18T09:08:46;-1.60;99.90
67752;DHT22;54551;51.068;5.826;2022-12-18T09:11:21;-1.20;99.90
67752;DHT22;54551;51.068;5.826;2022-12-18T09:13:47;-0.90;99.90
67752;DHT22;54551;51.068;5.826;2022-12-18T09:16:15;-1.10;99.90
67752;DHT22;54551;51.068;5.826;2022-12-18T09:18:41;-1.30;99.90
67752;DHT22;54551;51.068;5.826;2022-12-18T09:21:15;-1.50;99.90
67752;DHT22;54551;51.068;5.826;2022-12-18T09:23:41;-1.20;99.90
67752;DHT22;54551;51.068;5.826;2022-12-18T09:26:07;-1.00;99.90
67752;DHT22;54551;51.068;5.826;2022-12-18T09:28:33;-1.00;99.90
67752;DHT22;54551;51.068;5.826;2022-12-18T09:31:04;-1.20;99.90
67752;DHT22;54551;51.068;5.826;2022-12-18T09:33:30;-1.20;99.90
67752;DHT22;54551;51.068;5.826;2022-12-18T09:35:55;-1.20;99.90
67752;DHT22;54551;51.068;5.826;2022-12-18T09:38:24;-1.20;99.90
67752;DHT22;54551;51.068;5.826;2022-12-18T09:40:53;-1.10;99.90
67752;DHT22;54551;51.068;5.826;2022-12-18T09:43:26;-0.80;99.90
67752;DHT22;54551;51.068;5.826;2022-12-18T09:45:58;-0.70;99.90
67752;DHT22;54551;51.068;5.826;2022-12-18T09:48:31;-0.70;99.90
67752;DHT22;54551;51.068;5.826;2022-12-18T09:51:03;-0.70;99.90
67752;DHT22;54551;51.068;5.826;2022-12-18T09:53:35;-0.70;99.90
67752;DHT22;54551;51.068;5.826;2022-12-18T09:56:04;-0.50;99.90
67752;DHT22;54551;51.068;5.826;2022-12-18T10:00:58;-0.40;99.90
67752;DHT22;54551;51.068;5.826;2022-12-18T10:03:24;-0.60;99.90
67752;DHT22;54551;51.068;5.826;2022-12-18T10:06:13;-0.60;99.90
67752;DHT22;54551;51.068;5.826;2022-12-18T10:09:09;-0.50;99.90
67752;DHT22;54551;51.068;5.826;2022-12-18T10:12:14;-0.80;99.90
67752;DHT22;54551;51.068;5.826;2022-12-18T10:14:48;-0.90;99.90
67752;DHT22;54551;51.068;5.826;2022-12-18T10:22:50;-0.90;99.90
67752;DHT22;54551;51.068;5.826;2022-12-18T10:25:35;-1.00;99.90
67752;DHT22;54551;51.068;5.826;2022-12-18T10:28:29;-1.10;99.90
67752;DHT22;54551;51.068;5.826;2022-12-18T10:30:58;-1.10;99.90
67752;DHT22;54551;51.068;5.826;2022-12-18T10:33:28;-1.30;99.90
67752;DHT22;54551;51.068;5.826;2022-12-18T10:35:54;-1.00;99.90
67752;DHT22;54551;51.068;5.826;2022-12-18T10:38:29;-1.00;99.90
67752;DHT22;54551;51.068;5.826;2022-12-18T10:40:56;-1.00;99.90
67752;DHT22;54551;51.068;5.826;2022-12-18T10:43:23;-1.10;99.90
67752;DHT22;54551;51.068;5.826;2022-12-18T10:51:22;-1.00;99.90
67752;DHT22;54551;51.068;5.826;2022-12-18T10:53:57;-0.80;99.90
67752;DHT22;54551;51.068;5.826;2022-12-18T10:56:27;-0.80;99.90
67752;DHT22;54551;51.068;5.826;2022-12-18T10:59:03;-0.80;99.90
67752;DHT22;54551;51.068;5.826;2022-12-18T11:01:57;-0.80;99.90
67752;DHT22;54551;51.068;5.826;2022-12-18T11:04:29;-0.80;99.90
67752;DHT22;54551;51.068;5.826;2022-12-18T11:09:28;-0.80;99.90
67752;DHT22;54551;51.068;5.826;2022-12-18T11:11:57;-0.70;99.90
67752;DHT22;54551;51.068;5.826;2022-12-18T11:14:42;-0.80;99.90
67752;DHT22;54551;51.068;5.826;2022-12-18T11:17:34;-0.70;99.90
67752;DHT22;54551;51.068;5.826;2022-12-18T11:22:58;-0.60;99.90
67752;DHT22;54551;51.068;5.826;2022-12-18T11:25:28;-0.70;99.90
67752;DHT22;54551;51.068;5.826;2022-12-18T11:27:58;-0.70;99.90
67752;DHT22;54551;51.068;5.826;2022-12-18T11:30:28;-0.50;99.90
67752;DHT22;54551;51.068;5.826;2022-12-18T11:35:51;-0.50;99.90
67752;DHT22;54551;51.068;5.826;2022-12-18T11:38:25;-0.70;99.90
67752;DHT22;54551;51.068;5.826;2022-12-18T11:40:58;-0.70;99.90
67752;DHT22;54551;51.068;5.826;2022-12-18T11:46:04;-0.50;99.90
67752;DHT22;54551;51.068;5.826;2022-12-18T11:48:37;-0.50;99.90
67752;DHT22;54551;51.068;5.826;2022-12-18T11:51:08;-0.50;99.90
67752;DHT22;54551;51.068;5.826;2022-12-18T11:53:36;-0.40;99.90
67752;DHT22;54551;51.068;5.826;2022-12-18T12:04:41;-0.30;99.90
67752;DHT22;54551;51.068;5.826;2022-12-18T12:15:34;-0.40;99.90
67752;DHT22;54551;51.068;5.826;2022-12-18T12:18:24;-0.50;99.90
67752;DHT22;54551;51.068;5.826;2022-12-18T12:23:41;-0.30;99.90
67752;DHT22;54551;51.068;5.826;2022-12-18T12:26:13;-0.30;99.90
67752;DHT22;54551;51.068;5.826;2022-12-18T12:29:15;-0.10;99.90
67752;DHT22;54551;51.068;5.826;2022-12-18T12:32:10;0.00;99.90
67752;DHT22;54551;51.068;5.826;2022-12-18T12:40:18;-0.10;99.90
67752;DHT22;54551;51.068;5.826;2022-12-18T12:42:49;-0.10;99.90
67752;DHT22;54551;51.068;5.826;2022-12-18T12:45:58;-0.10;99.90
67752;DHT22;54551;51.068;5.826;2022-12-18T12:51:20;-0.10;99.90
67752;DHT22;54551;51.068;5.826;2022-12-18T12:53:47;0.00;99.90
67752;DHT22;54551;51.068;5.826;2022-12-18T12:56:16;0.00;99.90
67752;DHT22;54551;51.068;5.826;2022-12-18T12:58:59;-0.10;99.90
67752;DHT22;54551;51.068;5.826;2022-12-18T13:02:09;0.00;99.90
67752;DHT22;54551;51.068;5.826;2022-12-18T13:04:48;0.00;99.90
67752;DHT22;54551;51.068;5.826;2022-12-18T13:07:23;0.00;99.90
67752;DHT22;54551;51.068;5.826;2022-12-18T13:15:33;0.20;99.90
67752;DHT22;54551;51.068;5.826;2022-12-18T13:18:10;0.30;99.90
67752;DHT22;54551;51.068;5.826;2022-12-18T13:20:39;0.30;99.90
67752;DHT22;54551;51.068;5.826;2022-12-18T13:34:26;0.40;99.90
67752;DHT22;54551;51.068;5.826;2022-12-18T13:36:56;0.30;99.90
67752;DHT22;54551;51.068;5.826;2022-12-18T13:39:30;0.30;99.90
67752;DHT22;54551;51.068;5.826;2022-12-18T13:44:36;0.40;99.90
67752;DHT22;54551;51.068;5.826;2022-12-18T13:47:04;0.30;99.90
67752;DHT22;54551;51.068;5.826;2022-12-18T13:49:41;0.40;99.90
67752;DHT22;54551;51.068;5.826;2022-12-18T13:52:23;0.40;99.90
67752;DHT22;54551;51.068;5.826;2022-12-18T13:55:16;0.50;99.90
67752;DHT22;54551;51.068;5.826;2022-12-18T13:57:43;0.50;99.90
67752;DHT22;54551;51.068;5.826;2022-12-18T14:02:47;0.50;99.90
67752;DHT22;54551;51.068;5.826;2022-12-18T14:07:54;0.60;99.90
67752;DHT22;54551;51.068;5.826;2022-12-18T14:10:20;0.50;99.90
67752;DHT22;54551;51.068;5.826;2022-12-18T14:12:49;0.50;99.90
67752;DHT22;54551;51.068;5.826;2022-12-18T14:15:28;0.50;99.90
67752;DHT22;54551;51.068;5.826;2022-12-18T14:18:19;0.60;99.90
67752;DHT22;54551;51.068;5.826;2022-12-18T14:20:47;0.60;99.90
67752;DHT22;54551;51.068;5.826;2022-12-18T14:25:54;0.80;99.90
67752;DHT22;54551;51.068;5.826;2022-12-18T14:28:20;0.70;99.90
67752;DHT22;54551;51.068;5.826;2022-12-18T14:30:48;0.70;99.90
67752;DHT22;54551;51.068;5.826;2022-12-18T14:33:19;0.80;99.90
67752;DHT22;54551;51.068;5.826;2022-12-18T14:35:57;0.80;99.90
67752;DHT22;54551;51.068;5.826;2022-12-18T14:38:39;0.70;99.90
67752;DHT22;54551;51.068;5.826;2022-12-18T14:41:10;0.60;99.90
67752;DHT22;54551;51.068;5.826;2022-12-18T14:43:38;0.60;99.90
67752;DHT22;54551;51.068;5.826;2022-12-18T14:46:37;0.60;99.90
67752;DHT22;54551;51.068;5.826;2022-12-18T14:49:26;0.60;99.90
67752;DHT22;54551;51.068;5.826;2022-12-18T14:51:59;0.50;99.90
67752;DHT22;54551;51.068;5.826;2022-12-18T14:54:27;0.50;99.90
67752;DHT22;54551;51.068;5.826;2022-12-18T14:57:00;0.50;99.90
67752;DHT22;54551;51.068;5.826;2022-12-18T14:59:28;0.40;99.90
67752;DHT22;54551;51.068;5.826;2022-12-18T15:02:04;0.40;99.90
67752;DHT22;54551;51.068;5.826;2022-12-18T15:04:40;0.30;99.90
67752;DHT22;54551;51.068;5.826;2022-12-18T15:07:18;0.30;99.90
67752;DHT22;54551;51.068;5.826;2022-12-18T15:12:42;0.30;99.90
67752;DHT22;54551;51.068;5.826;2022-12-18T15:18:00;0.50;99.90
67752;DHT22;54551;51.068;5.826;2022-12-18T15:20:26;0.60;99.90
67752;DHT22;54551;51.068;5.826;2022-12-18T15:22:52;0.50;99.90
67752;DHT22;54551;51.068;5.826;2022-12-18T15:25:32;0.50;99.90
67752;DHT22;54551;51.068;5.826;2022-12-18T15:27:59;0.60;99.90
67752;DHT22;54551;51.068;5.826;2022-12-18T15:30:25;0.60;99.90
67752;DHT22;54551;51.068;5.826;2022-12-18T15:32:52;0.60;99.90
67752;DHT22;54551;51.068;5.826;2022-12-18T15:35:38;0.50;99.90
67752;DHT22;54551;51.068;5.826;2022-12-18T15:38:03;0.40;99.90
67752;DHT22;54551;51.068;5.826;2022-12-18T15:40:29;0.60;99.90
67752;DHT22;54551;51.068;5.826;2022-12-18T15:42:55;0.50;99.90
67752;DHT22;54551;51.068;5.826;2022-12-18T15:45:40;0.50;99.90
67752;DHT22;54551;51.068;5.826;2022-12-18T15:48:21;0.50;99.90
67752;DHT22;54551;51.068;5.826;2022-12-18T15:50:47;0.40;99.90
67752;DHT22;54551;51.068;5.826;2022-12-18T15:53:14;0.40;99.90
67752;DHT22;54551;51.068;5.826;2022-12-18T15:55:42;0.50;99.90
67752;DHT22;54551;51.068;5.826;2022-12-18T15:58:26;0.40;99.90
67752;DHT22;54551;51.068;5.826;2022-12-18T16:00:52;0.40;99.90
67752;DHT22;54551;51.068;5.826;2022-12-18T16:03:19;0.50;99.90
67752;DHT22;54551;51.068;5.826;2022-12-18T16:05:45;0.40;99.90
67752;DHT22;54551;51.068;5.826;2022-12-18T16:08:10;0.30;99.90
67752;DHT22;54551;51.068;5.826;2022-12-18T16:10:36;0.30;99.90
67752;DHT22;54551;51.068;5.826;2022-12-18T16:13:02;0.30;99.90
67752;DHT22;54551;51.068;5.826;2022-12-18T16:15:28;0.40;99.90
67752;DHT22;54551;51.068;5.826;2022-12-18T16:17:54;0.40;99.90
67752;DHT22;54551;51.068;5.826;2022-12-18T16:20:21;0.30;99.90
67752;DHT22;54551;51.068;5.826;2022-12-18T16:22:48;0.30;99.90
67752;DHT22;54551;51.068;5.826;2022-12-18T16:25:26;0.30;99.90
67752;DHT22;54551;51.068;5.826;2022-12-18T16:27:53;0.40;99.90
67752;DHT22;54551;51.068;5.826;2022-12-18T16:30:29;0.50;99.90
67752;DHT22;54551;51.068;5.826;2022-12-18T16:32:57;0.40;99.90
67752;DHT22;54551;51.068;5.826;2022-12-18T16:35:23;0.40;99.90
67752;DHT22;54551;51.068;5.826;2022-12-18T16:37:50;0.40;99.90
67752;DHT22;54551;51.068;5.826;2022-12-18T16:40:16;0.30;99.90
67752;DHT22;54551;51.068;5.826;2022-12-18T16:42:44;0.40;99.90
67752;DHT22;54551;51.068;5.826;2022-12-18T16:45:13;0.40;99.90
67752;DHT22;54551;51.068;5.826;2022-12-18T16:47:39;0.50;99.90
67752;DHT22;54551;51.068;5.826;2022-12-18T16:50:06;0.50;99.90
67752;DHT22;54551;51.068;5.826;2022-12-18T16:52:33;0.50;99.90
67752;DHT22;54551;51.068;5.826;2022-12-18T16:54:59;0.30;99.90
67752;DHT22;54551;51.068;5.826;2022-12-18T16:57:25;0.40;99.90
67752;DHT22;54551;51.068;5.826;2022-12-18T16:59:52;0.40;99.90
67752;DHT22;54551;51.068;5.826;2022-12-18T17:02:23;0.40;99.90
67752;DHT22;54551;51.068;5.826;2022-12-18T17:04:53;0.40;99.90
67752;DHT22;54551;51.068;5.826;2022-12-18T17:07:20;0.40;99.90
67752;DHT22;54551;51.068;5.826;2022-12-18T17:09:46;0.30;99.90
67752;DHT22;54551;51.068;5.826;2022-12-18T17:12:11;0.40;99.90
67752;DHT22;54551;51.068;5.826;2022-12-18T17:14:40;0.30;99.90
67752;DHT22;54551;51.068;5.826;2022-12-18T17:17:05;0.30;99.90
67752;DHT22;54551;51.068;5.826;2022-12-18T17:19:32;0.20;99.90
67752;DHT22;54551;51.068;5.826;2022-12-18T17:21:58;0.30;99.90
67752;DHT22;54551;51.068;5.826;2022-12-18T17:24:24;0.20;99.90
67752;DHT22;54551;51.068;5.826;2022-12-18T17:26:50;0.20;99.90
67752;DHT22;54551;51.068;5.826;2022-12-18T17:29:18;0.20;99.90
67752;DHT22;54551;51.068;5.826;2022-12-18T17:31:45;0.20;99.90
67752;DHT22;54551;51.068;5.826;2022-12-18T17:34:12;0.20;99.90
67752;DHT22;54551;51.068;5.826;2022-12-18T17:36:38;0.10;99.90
67752;DHT22;54551;51.068;5.826;2022-12-18T17:39:05;0.20;99.90
67752;DHT22;54551;51.068;5.826;2022-12-18T17:41:32;0.20;99.90
67752;DHT22;54551;51.068;5.826;2022-12-18T17:44:03;0.20;99.90
67752;DHT22;54551;51.068;5.826;2022-12-18T17:46:30;0.20;99.90
67752;DHT22;54551;51.068;5.826;2022-12-18T17:48:59;0.20;99.90
67752;DHT22;54551;51.068;5.826;2022-12-18T17:51:25;0.10;99.90
67752;DHT22;54551;51.068;5.826;2022-12-18T17:53:51;0.10;99.90
67752;DHT22;54551;51.068;5.826;2022-12-18T17:56:19;0.20;99.90
67752;DHT22;54551;51.068;5.826;2022-12-18T17:58:47;0.20;99.90